sensor_id;sensor_type;location;lat;lon;timestamp;P1;durP1;ratioP1;P2;durP2;ratioP2
67130;SDS011;54051;53.464;49.532;2023-03-21T00:01:21;13.52;;;6.45;;
67130;SDS011;54051;53.464;49.532;2023-03-21T00:03:47;13.93;;;6.45;;
67130;SDS011;54051;53.464;49.532;2023-03-21T00:06:16;13.23;;;6.22;;
67130;SDS011;54051;53.464;49.532;2023-03-21T00:08:42;12.98;;;6.65;;
67130;SDS011;54051;53.464;49.532;2023-03-21T00:11:12;12.45;;;6.05;;
67130;SDS011;54051;53.464;49.532;2023-03-21T00:13:39;12.18;;;6.03;;
67130;SDS011;54051;53.464;49.532;2023-03-21T00:16:12;12.23;;;6.20;;
67130;SDS011;54051;53.464;49.532;2023-03-21T00:18:42;14.45;;;6.40;;
67130;SDS011;54051;53.464;49.532;2023-03-21T00:21:12;12.73;;;6.32;;
67130;SDS011;54051;53.464;49.532;2023-03-21T00:23:40;12.52;;;6.10;;
67130;SDS011;54051;53.464;49.532;2023-03-21T00:26:07;11.43;;;6.05;;
67130;SDS011;54051;53.464;49.532;2023-03-21T00:28:35;11.48;;;6.13;;
67130;SDS011;54051;53.464;49.532;2023-03-21T00:31:03;12.45;;;5.90;;
67130;SDS011;54051;53.464;49.532;2023-03-21T00:33:30;12.43;;;5.63;;
67130;SDS011;54051;53.464;49.532;2023-03-21T00:35:56;12.43;;;6.20;;
67130;SDS011;54051;53.464;49.532;2023-03-21T00:38:23;13.70;;;6.63;;
67130;SDS011;54051;53.464;49.532;2023-03-21T00:40:49;13.60;;;6.38;;
67130;SDS011;54051;53.464;49.532;2023-03-21T00:43:16;12.70;;;6.28;;
67130;SDS011;54051;53.464;49.532;2023-03-21T00:45:44;11.40;;;5.53;;
67130;SDS011;54051;53.464;49.532;2023-03-21T00:48:11;11.60;;;5.93;;
67130;SDS011;54051;53.464;49.532;2023-03-21T00:50:38;11.02;;;5.32;;
67130;SDS011;54051;53.464;49.532;2023-03-21T00:53:05;11.03;;;5.27;;
67130;SDS011;54051;53.464;49.532;2023-03-21T00:55:31;11.82;;;6.15;;
67130;SDS011;54051;53.464;49.532;2023-03-21T00:57:58;12.43;;;6.10;;
67130;SDS011;54051;53.464;49.532;2023-03-21T01:00:25;13.07;;;6.10;;
67130;SDS011;54051;53.464;49.532;2023-03-21T01:02:52;12.90;;;5.78;;
67130;SDS011;54051;53.464;49.532;2023-03-21T01:05:28;11.60;;;5.65;;
67130;SDS011;54051;53.464;49.532;2023-03-21T01:08:15;11.25;;;5.95;;
67130;SDS011;54051;53.464;49.532;2023-03-21T01:10:44;11.27;;;5.30;;
67130;SDS011;54051;53.464;49.532;2023-03-21T01:13:12;10.40;;;4.70;;
67130;SDS011;54051;53.464;49.532;2023-03-21T01:15:44;10.98;;;5.22;;
67130;SDS011;54051;53.464;49.532;2023-03-21T01:18:22;11.40;;;5.05;;
67130;SDS011;54051;53.464;49.532;2023-03-21T01:20:52;11.27;;;5.13;;
67130;SDS011;54051;53.464;49.532;2023-03-21T01:23:20;11.85;;;5.43;;
67130;SDS011;54051;53.464;49.532;2023-03-21T01:25:47;11.38;;;5.20;;
67130;SDS011;54051;53.464;49.532;2023-03-21T01:28:14;11.38;;;5.30;;
67130;SDS011;54051;53.464;49.532;2023-03-21T01:30:44;12.13;;;5.50;;
67130;SDS011;54051;53.464;49.532;2023-03-21T01:33:12;12.98;;;5.05;;
67130;SDS011;54051;53.464;49.532;2023-03-21T01:35:40;11.85;;;5.82;;
67130;SDS011;54051;53.464;49.532;2023-03-21T01:38:06;11.48;;;5.45;;
67130;SDS011;54051;53.464;49.532;2023-03-21T01:40:34;11.82;;;6.00;;
67130;SDS011;54051;53.464;49.532;2023-03-21T01:43:02;10.68;;;5.15;;
67130;SDS011;54051;53.464;49.532;2023-03-21T01:48:32;11.63;;;6.15;;
67130;SDS011;54051;53.464;49.532;2023-03-21T01:51:08;12.18;;;5.80;;
67130;SDS011;54051;53.464;49.532;2023-03-21T01:53:37;11.45;;;5.95;;
67130;SDS011;54051;53.464;49.532;2023-03-21T01:56:07;13.07;;;5.80;;
67130;SDS011;54051;53.464;49.532;2023-03-21T01:58:38;11.57;;;5.50;;
67130;SDS011;54051;53.464;49.532;2023-03-21T02:01:06;11.52;;;5.40;;
67130;SDS011;54051;53.464;49.532;2023-03-21T02:03:33;12.55;;;5.60;;
67130;SDS011;54051;53.464;49.532;2023-03-21T02:06:10;11.73;;;6.00;;
67130;SDS011;54051;53.464;49.532;2023-03-21T02:11:06;11.70;;;5.45;;
67130;SDS011;54051;53.464;49.532;2023-03-21T02:13:34;14.93;;;5.80;;
67130;SDS011;54051;53.464;49.532;2023-03-21T02:16:01;10.93;;;5.63;;
67130;SDS011;54051;53.464;49.532;2023-03-21T02:18:40;12.55;;;6.05;;
67130;SDS011;54051;53.464;49.532;2023-03-21T02:26:53;10.05;;;5.25;;
67130;SDS011;54051;53.464;49.532;2023-03-21T02:37:40;12.57;;;6.05;;
67130;SDS011;54051;53.464;49.532;2023-03-21T02:45:21;13.88;;;6.40;;
67130;SDS011;54051;53.464;49.532;2023-03-21T02:47:52;12.90;;;5.85;;
67130;SDS011;54051;53.464;49.532;2023-03-21T02:52:48;13.57;;;6.10;;
67130;SDS011;54051;53.464;49.532;2023-03-21T02:55:20;16.98;;;7.45;;
67130;SDS011;54051;53.464;49.532;2023-03-21T02:57:50;11.07;;;5.82;;
67130;SDS011;54051;53.464;49.532;2023-03-21T03:00:22;11.80;;;5.78;;
67130;SDS011;54051;53.464;49.532;2023-03-21T03:02:52;13.13;;;6.15;;
67130;SDS011;54051;53.464;49.532;2023-03-21T03:05:21;12.38;;;5.65;;
67130;SDS011;54051;53.464;49.532;2023-03-21T03:18:58;10.98;;;5.35;;
67130;SDS011;54051;53.464;49.532;2023-03-21T03:23:53;12.40;;;5.90;;
67130;SDS011;54051;53.464;49.532;2023-03-21T03:26:32;12.65;;;6.32;;
67130;SDS011;54051;53.464;49.532;2023-03-21T03:29:05;13.65;;;6.13;;
67130;SDS011;54051;53.464;49.532;2023-03-21T03:31:38;12.65;;;6.22;;
67130;SDS011;54051;53.464;49.532;2023-03-21T03:34:14;11.25;;;5.25;;
67130;SDS011;54051;53.464;49.532;2023-03-21T03:36:45;11.63;;;5.40;;
67130;SDS011;54051;53.464;49.532;2023-03-21T03:39:16;11.50;;;5.13;;
67130;SDS011;54051;53.464;49.532;2023-03-21T03:41:44;9.95;;;5.00;;
67130;SDS011;54051;53.464;49.532;2023-03-21T03:44:13;9.38;;;5.03;;
67130;SDS011;54051;53.464;49.532;2023-03-21T03:49:24;9.52;;;4.90;;
67130;SDS011;54051;53.464;49.532;2023-03-21T03:54:37;12.30;;;5.95;;
67130;SDS011;54051;53.464;49.532;2023-03-21T03:57:09;10.63;;;5.75;;
67130;SDS011;54051;53.464;49.532;2023-03-21T03:59:37;11.30;;;5.40;;
67130;SDS011;54051;53.464;49.532;2023-03-21T04:02:05;12.70;;;5.53;;
67130;SDS011;54051;53.464;49.532;2023-03-21T04:04:31;11.73;;;5.75;;
67130;SDS011;54051;53.464;49.532;2023-03-21T04:06:58;12.02;;;5.78;;
67130;SDS011;54051;53.464;49.532;2023-03-21T04:09:25;9.97;;;4.87;;
67130;SDS011;54051;53.464;49.532;2023-03-21T04:11:55;11.20;;;5.43;;
67130;SDS011;54051;53.464;49.532;2023-03-21T04:14:22;11.40;;;5.63;;
67130;SDS011;54051;53.464;49.532;2023-03-21T04:16:49;12.10;;;6.00;;
67130;SDS011;54051;53.464;49.532;2023-03-21T04:19:16;13.35;;;6.25;;
67130;SDS011;54051;53.464;49.532;2023-03-21T04:21:43;12.52;;;6.05;;
67130;SDS011;54051;53.464;49.532;2023-03-21T04:24:11;11.13;;;5.32;;
67130;SDS011;54051;53.464;49.532;2023-03-21T04:26:39;11.18;;;5.28;;
67130;SDS011;54051;53.464;49.532;2023-03-21T04:29:05;10.88;;;5.53;;
67130;SDS011;54051;53.464;49.532;2023-03-21T04:31:32;10.47;;;5.53;;
67130;SDS011;54051;53.464;49.532;2023-03-21T04:33:59;10.63;;;5.60;;
67130;SDS011;54051;53.464;49.532;2023-03-21T04:36:28;9.52;;;4.82;;
67130;SDS011;54051;53.464;49.532;2023-03-21T04:39:06;7.55;;;4.38;;
67130;SDS011;54051;53.464;49.532;2023-03-21T04:41:40;7.82;;;4.60;;
67130;SDS011;54051;53.464;49.532;2023-03-21T04:44:08;9.30;;;5.15;;
67130;SDS011;54051;53.464;49.532;2023-03-21T04:46:36;9.10;;;5.05;;
67130;SDS011;54051;53.464;49.532;2023-03-21T04:49:03;9.57;;;5.00;;
67130;SDS011;54051;53.464;49.532;2023-03-21T04:53:55;7.68;;;4.55;;
67130;SDS011;54051;53.464;49.532;2023-03-21T04:56:25;7.03;;;4.32;;
67130;SDS011;54051;53.464;49.532;2023-03-21T04:58:57;7.32;;;4.22;;
67130;SDS011;54051;53.464;49.532;2023-03-21T05:01:25;8.50;;;3.97;;
67130;SDS011;54051;53.464;49.532;2023-03-21T05:03:58;6.25;;;4.15;;
67130;SDS011;54051;53.464;49.532;2023-03-21T05:06:26;7.13;;;4.50;;
67130;SDS011;54051;53.464;49.532;2023-03-21T05:11:21;6.60;;;4.35;;
67130;SDS011;54051;53.464;49.532;2023-03-21T05:13:47;6.90;;;4.03;;
67130;SDS011;54051;53.464;49.532;2023-03-21T05:16:14;7.10;;;4.40;;
67130;SDS011;54051;53.464;49.532;2023-03-21T05:18:40;6.65;;;4.25;;
67130;SDS011;54051;53.464;49.532;2023-03-21T05:21:06;6.57;;;3.95;;
67130;SDS011;54051;53.464;49.532;2023-03-21T05:23:35;5.72;;;3.72;;
67130;SDS011;54051;53.464;49.532;2023-03-21T05:26:05;5.95;;;3.97;;
67130;SDS011;54051;53.464;49.532;2023-03-21T05:28:33;6.22;;;3.80;;
67130;SDS011;54051;53.464;49.532;2023-03-21T05:31:02;6.50;;;4.00;;
67130;SDS011;54051;53.464;49.532;2023-03-21T05:33:29;6.75;;;3.90;;
67130;SDS011;54051;53.464;49.532;2023-03-21T05:38:21;5.95;;;3.70;;
67130;SDS011;54051;53.464;49.532;2023-03-21T05:40:48;6.43;;;3.45;;
67130;SDS011;54051;53.464;49.532;2023-03-21T05:43:15;6.30;;;3.72;;
67130;SDS011;54051;53.464;49.532;2023-03-21T05:45:41;6.35;;;3.70;;
67130;SDS011;54051;53.464;49.532;2023-03-21T05:48:08;5.72;;;3.55;;
67130;SDS011;54051;53.464;49.532;2023-03-21T05:50:34;6.07;;;3.80;;
67130;SDS011;54051;53.464;49.532;2023-03-21T05:53:00;6.47;;;3.78;;
67130;SDS011;54051;53.464;49.532;2023-03-21T05:55:27;6.30;;;3.80;;
67130;SDS011;54051;53.464;49.532;2023-03-21T05:57:53;7.55;;;3.83;;
67130;SDS011;54051;53.464;49.532;2023-03-21T06:00:19;5.63;;;3.47;;
67130;SDS011;54051;53.464;49.532;2023-03-21T06:02:46;7.15;;;3.45;;
67130;SDS011;54051;53.464;49.532;2023-03-21T06:05:12;5.70;;;3.60;;
67130;SDS011;54051;53.464;49.532;2023-03-21T06:07:39;6.55;;;3.60;;
67130;SDS011;54051;53.464;49.532;2023-03-21T06:10:05;5.93;;;3.65;;
67130;SDS011;54051;53.464;49.532;2023-03-21T06:12:32;5.47;;;3.35;;
67130;SDS011;54051;53.464;49.532;2023-03-21T06:14:58;7.90;;;3.67;;
67130;SDS011;54051;53.464;49.532;2023-03-21T06:17:25;5.75;;;3.40;;
67130;SDS011;54051;53.464;49.532;2023-03-21T06:19:51;6.35;;;3.88;;
67130;SDS011;54051;53.464;49.532;2023-03-21T06:22:18;6.05;;;3.50;;
67130;SDS011;54051;53.464;49.532;2023-03-21T06:24:44;7.05;;;3.90;;
67130;SDS011;54051;53.464;49.532;2023-03-21T06:27:10;5.28;;;3.05;;
67130;SDS011;54051;53.464;49.532;2023-03-21T06:29:36;7.50;;;3.80;;
67130;SDS011;54051;53.464;49.532;2023-03-21T06:32:03;8.07;;;3.60;;
67130;SDS011;54051;53.464;49.532;2023-03-21T06:34:29;5.85;;;3.53;;
67130;SDS011;54051;53.464;49.532;2023-03-21T06:39:23;8.73;;;3.50;;
67130;SDS011;54051;53.464;49.532;2023-03-21T06:41:50;6.22;;;3.53;;
67130;SDS011;54051;53.464;49.532;2023-03-21T06:44:16;6.28;;;3.70;;
67130;SDS011;54051;53.464;49.532;2023-03-21T06:46:42;6.15;;;3.47;;
67130;SDS011;54051;53.464;49.532;2023-03-21T06:49:09;5.82;;;3.50;;
67130;SDS011;54051;53.464;49.532;2023-03-21T06:51:35;5.63;;;3.40;;
67130;SDS011;54051;53.464;49.532;2023-03-21T06:54:02;6.85;;;3.67;;
67130;SDS011;54051;53.464;49.532;2023-03-21T06:56:28;6.47;;;3.60;;
67130;SDS011;54051;53.464;49.532;2023-03-21T06:58:54;6.22;;;3.38;;
67130;SDS011;54051;53.464;49.532;2023-03-21T07:01:20;7.45;;;3.20;;
67130;SDS011;54051;53.464;49.532;2023-03-21T07:03:47;5.90;;;3.40;;
67130;SDS011;54051;53.464;49.532;2023-03-21T07:06:13;6.75;;;3.25;;
67130;SDS011;54051;53.464;49.532;2023-03-21T07:08:40;6.18;;;3.20;;
67130;SDS011;54051;53.464;49.532;2023-03-21T07:13:33;6.93;;;3.30;;
67130;SDS011;54051;53.464;49.532;2023-03-21T07:15:59;6.15;;;3.20;;
67130;SDS011;54051;53.464;49.532;2023-03-21T07:18:26;5.43;;;3.08;;
67130;SDS011;54051;53.464;49.532;2023-03-21T07:20:52;7.28;;;3.55;;
67130;SDS011;54051;53.464;49.532;2023-03-21T07:23:19;7.28;;;3.40;;
67130;SDS011;54051;53.464;49.532;2023-03-21T07:25:47;5.57;;;3.15;;
67130;SDS011;54051;53.464;49.532;2023-03-21T07:28:15;6.07;;;3.25;;
67130;SDS011;54051;53.464;49.532;2023-03-21T07:30:42;6.47;;;3.80;;
67130;SDS011;54051;53.464;49.532;2023-03-21T07:33:09;6.05;;;3.40;;
67130;SDS011;54051;53.464;49.532;2023-03-21T07:35:36;5.95;;;3.25;;
67130;SDS011;54051;53.464;49.532;2023-03-21T07:38:03;7.50;;;3.47;;
67130;SDS011;54051;53.464;49.532;2023-03-21T07:40:30;5.93;;;3.35;;
67130;SDS011;54051;53.464;49.532;2023-03-21T07:42:57;7.22;;;3.42;;
67130;SDS011;54051;53.464;49.532;2023-03-21T07:45:24;6.32;;;3.60;;
67130;SDS011;54051;53.464;49.532;2023-03-21T07:47:52;6.05;;;3.20;;
67130;SDS011;54051;53.464;49.532;2023-03-21T07:50:19;5.82;;;3.35;;
67130;SDS011;54051;53.464;49.532;2023-03-21T07:52:45;6.50;;;3.17;;
67130;SDS011;54051;53.464;49.532;2023-03-21T07:55:12;7.03;;;3.60;;
67130;SDS011;54051;53.464;49.532;2023-03-21T07:57:38;5.60;;;3.03;;
67130;SDS011;54051;53.464;49.532;2023-03-21T08:00:05;6.80;;;3.28;;
67130;SDS011;54051;53.464;49.532;2023-03-21T08:02:32;7.20;;;3.80;;
67130;SDS011;54051;53.464;49.532;2023-03-21T08:04:59;8.02;;;3.63;;
67130;SDS011;54051;53.464;49.532;2023-03-21T08:07:25;8.35;;;3.60;;
67130;SDS011;54051;53.464;49.532;2023-03-21T08:09:52;7.95;;;4.18;;
67130;SDS011;54051;53.464;49.532;2023-03-21T08:12:18;6.90;;;3.92;;
67130;SDS011;54051;53.464;49.532;2023-03-21T08:14:44;7.25;;;3.38;;
67130;SDS011;54051;53.464;49.532;2023-03-21T08:17:11;6.20;;;3.55;;
67130;SDS011;54051;53.464;49.532;2023-03-21T08:19:37;6.28;;;3.50;;
67130;SDS011;54051;53.464;49.532;2023-03-21T08:22:04;8.73;;;4.15;;
67130;SDS011;54051;53.464;49.532;2023-03-21T08:24:31;7.88;;;4.30;;
67130;SDS011;54051;53.464;49.532;2023-03-21T08:26:59;8.57;;;4.00;;
67130;SDS011;54051;53.464;49.532;2023-03-21T08:29:26;7.72;;;3.67;;
67130;SDS011;54051;53.464;49.532;2023-03-21T08:31:53;6.85;;;3.60;;
67130;SDS011;54051;53.464;49.532;2023-03-21T08:34:19;7.63;;;3.67;;
67130;SDS011;54051;53.464;49.532;2023-03-21T08:36:47;6.57;;;3.53;;
67130;SDS011;54051;53.464;49.532;2023-03-21T08:39:13;6.90;;;3.58;;
67130;SDS011;54051;53.464;49.532;2023-03-21T08:41:39;6.75;;;3.60;;
67130;SDS011;54051;53.464;49.532;2023-03-21T08:44:06;6.22;;;3.58;;
67130;SDS011;54051;53.464;49.532;2023-03-21T08:46:32;6.30;;;3.72;;
67130;SDS011;54051;53.464;49.532;2023-03-21T08:48:58;8.20;;;3.50;;
67130;SDS011;54051;53.464;49.532;2023-03-21T08:51:24;6.88;;;3.78;;
67130;SDS011;54051;53.464;49.532;2023-03-21T08:53:51;7.00;;;3.50;;
67130;SDS011;54051;53.464;49.532;2023-03-21T08:56:17;6.75;;;3.60;;
67130;SDS011;54051;53.464;49.532;2023-03-21T08:58:43;8.05;;;3.90;;
67130;SDS011;54051;53.464;49.532;2023-03-21T09:01:10;6.50;;;3.60;;
67130;SDS011;54051;53.464;49.532;2023-03-21T09:03:40;6.68;;;3.97;;
67130;SDS011;54051;53.464;49.532;2023-03-21T09:06:08;6.88;;;4.00;;
67130;SDS011;54051;53.464;49.532;2023-03-21T09:08:37;7.57;;;3.78;;
67130;SDS011;54051;53.464;49.532;2023-03-21T09:11:03;6.88;;;3.83;;
67130;SDS011;54051;53.464;49.532;2023-03-21T09:13:30;9.15;;;3.90;;
67130;SDS011;54051;53.464;49.532;2023-03-21T09:15:56;7.37;;;3.60;;
67130;SDS011;54051;53.464;49.532;2023-03-21T09:18:26;7.50;;;3.67;;
67130;SDS011;54051;53.464;49.532;2023-03-21T09:21:12;7.72;;;3.78;;
67130;SDS011;54051;53.464;49.532;2023-03-21T09:23:40;7.25;;;4.03;;
67130;SDS011;54051;53.464;49.532;2023-03-21T09:26:07;6.80;;;3.63;;
67130;SDS011;54051;53.464;49.532;2023-03-21T09:28:34;8.30;;;3.50;;
67130;SDS011;54051;53.464;49.532;2023-03-21T09:31:03;8.68;;;3.78;;
67130;SDS011;54051;53.464;49.532;2023-03-21T09:33:31;7.30;;;3.80;;
67130;SDS011;54051;53.464;49.532;2023-03-21T09:35:57;7.38;;;3.67;;
67130;SDS011;54051;53.464;49.532;2023-03-21T09:38:25;6.68;;;3.25;;
67130;SDS011;54051;53.464;49.532;2023-03-21T09:46:26;7.20;;;3.40;;
67130;SDS011;54051;53.464;49.532;2023-03-21T09:48:58;7.80;;;3.33;;
67130;SDS011;54051;53.464;49.532;2023-03-21T09:51:33;8.82;;;3.80;;
67130;SDS011;54051;53.464;49.532;2023-03-21T09:54:19;8.50;;;4.20;;
67130;SDS011;54051;53.464;49.532;2023-03-21T09:57:00;10.30;;;4.38;;
67130;SDS011;54051;53.464;49.532;2023-03-21T09:59:52;8.15;;;3.85;;
67130;SDS011;54051;53.464;49.532;2023-03-21T10:04:59;8.63;;;3.70;;
67130;SDS011;54051;53.464;49.532;2023-03-21T10:07:27;8.48;;;4.22;;
67130;SDS011;54051;53.464;49.532;2023-03-21T10:09:57;9.38;;;4.15;;
67130;SDS011;54051;53.464;49.532;2023-03-21T10:12:25;7.93;;;3.88;;
67130;SDS011;54051;53.464;49.532;2023-03-21T10:14:55;6.68;;;3.35;;
67130;SDS011;54051;53.464;49.532;2023-03-21T10:17:40;7.95;;;3.28;;
67130;SDS011;54051;53.464;49.532;2023-03-21T10:22:49;6.65;;;3.08;;
67130;SDS011;54051;53.464;49.532;2023-03-21T10:25:19;6.03;;;3.08;;
67130;SDS011;54051;53.464;49.532;2023-03-21T10:28:13;6.68;;;3.00;;
67130;SDS011;54051;53.464;49.532;2023-03-21T10:30:43;7.47;;;2.80;;
67130;SDS011;54051;53.464;49.532;2023-03-21T10:33:14;5.88;;;2.88;;
67130;SDS011;54051;53.464;49.532;2023-03-21T10:35:46;5.93;;;2.60;;
67130;SDS011;54051;53.464;49.532;2023-03-21T10:38:17;6.55;;;3.08;;
67130;SDS011;54051;53.464;49.532;2023-03-21T10:40:45;6.47;;;2.88;;
67130;SDS011;54051;53.464;49.532;2023-03-21T10:43:15;14.13;;;3.15;;
67130;SDS011;54051;53.464;49.532;2023-03-21T10:45:51;5.78;;;2.58;;
67130;SDS011;54051;53.464;49.532;2023-03-21T10:48:18;6.93;;;2.70;;
67130;SDS011;54051;53.464;49.532;2023-03-21T10:50:49;6.68;;;2.67;;
67130;SDS011;54051;53.464;49.532;2023-03-21T10:53:20;6.63;;;2.90;;
67130;SDS011;54051;53.464;49.532;2023-03-21T10:56:08;10.45;;;3.45;;
67130;SDS011;54051;53.464;49.532;2023-03-21T10:58:45;13.13;;;3.38;;
67130;SDS011;54051;53.464;49.532;2023-03-21T11:01:20;6.53;;;2.78;;
67130;SDS011;54051;53.464;49.532;2023-03-21T11:04:16;6.70;;;2.95;;
67130;SDS011;54051;53.464;49.532;2023-03-21T11:09:23;6.55;;;2.70;;
67130;SDS011;54051;53.464;49.532;2023-03-21T11:11:52;6.35;;;2.42;;
67130;SDS011;54051;53.464;49.532;2023-03-21T11:14:41;8.25;;;2.40;;
67130;SDS011;54051;53.464;49.532;2023-03-21T11:19:53;6.72;;;2.75;;
67130;SDS011;54051;53.464;49.532;2023-03-21T11:22:35;7.32;;;2.90;;
67130;SDS011;54051;53.464;49.532;2023-03-21T11:25:06;6.22;;;2.30;;
67130;SDS011;54051;53.464;49.532;2023-03-21T11:27:36;5.05;;;1.95;;
67130;SDS011;54051;53.464;49.532;2023-03-21T11:32:49;6.07;;;2.20;;
67130;SDS011;54051;53.464;49.532;2023-03-21T11:35:19;5.53;;;2.30;;
67130;SDS011;54051;53.464;49.532;2023-03-21T11:37:52;6.35;;;1.92;;
67130;SDS011;54051;53.464;49.532;2023-03-21T11:40:21;7.35;;;2.15;;
67130;SDS011;54051;53.464;49.532;2023-03-21T11:42:51;6.28;;;2.10;;
67130;SDS011;54051;53.464;49.532;2023-03-21T11:45:20;6.28;;;2.17;;
67130;SDS011;54051;53.464;49.532;2023-03-21T11:47:49;6.75;;;2.25;;
67130;SDS011;54051;53.464;49.532;2023-03-21T11:56:04;7.38;;;2.40;;
67130;SDS011;54051;53.464;49.532;2023-03-21T12:04:33;4.97;;;2.08;;
67130;SDS011;54051;53.464;49.532;2023-03-21T12:09:49;6.90;;;2.67;;
67130;SDS011;54051;53.464;49.532;2023-03-21T12:18:04;5.35;;;2.03;;
67130;SDS011;54051;53.464;49.532;2023-03-21T12:20:43;5.32;;;1.95;;
67130;SDS011;54051;53.464;49.532;2023-03-21T12:26:11;4.53;;;1.83;;
67130;SDS011;54051;53.464;49.532;2023-03-21T12:31:40;5.03;;;2.00;;
67130;SDS011;54051;53.464;49.532;2023-03-21T12:39:34;5.40;;;1.75;;
67130;SDS011;54051;53.464;49.532;2023-03-21T12:42:18;5.53;;;1.95;;
67130;SDS011;54051;53.464;49.532;2023-03-21T12:44:58;7.88;;;1.83;;
67130;SDS011;54051;53.464;49.532;2023-03-21T12:52:38;7.05;;;2.05;;
67130;SDS011;54051;53.464;49.532;2023-03-21T12:57:41;10.77;;;3.42;;
67130;SDS011;54051;53.464;49.532;2023-03-21T13:03:12;9.13;;;2.58;;
67130;SDS011;54051;53.464;49.532;2023-03-21T13:05:50;12.52;;;2.78;;
67130;SDS011;54051;53.464;49.532;2023-03-21T13:08:22;9.70;;;2.50;;
67130;SDS011;54051;53.464;49.532;2023-03-21T13:18:57;9.63;;;2.53;;
67130;SDS011;54051;53.464;49.532;2023-03-21T13:24:18;9.95;;;2.95;;
67130;SDS011;54051;53.464;49.532;2023-03-21T13:27:03;9.17;;;2.40;;
67130;SDS011;54051;53.464;49.532;2023-03-21T13:29:33;10.40;;;2.45;;
67130;SDS011;54051;53.464;49.532;2023-03-21T13:34:56;12.10;;;2.67;;
67130;SDS011;54051;53.464;49.532;2023-03-21T13:37:25;10.20;;;2.47;;
67130;SDS011;54051;53.464;49.532;2023-03-21T13:39:59;7.65;;;2.33;;
67130;SDS011;54051;53.464;49.532;2023-03-21T13:42:33;10.52;;;2.45;;
67130;SDS011;54051;53.464;49.532;2023-03-21T13:45:00;13.23;;;2.58;;
67130;SDS011;54051;53.464;49.532;2023-03-21T13:47:38;11.68;;;3.22;;
67130;SDS011;54051;53.464;49.532;2023-03-21T13:52:39;9.65;;;2.80;;
67130;SDS011;54051;53.464;49.532;2023-03-21T13:55:13;8.18;;;2.42;;
67130;SDS011;54051;53.464;49.532;2023-03-21T13:57:41;10.68;;;2.63;;
67130;SDS011;54051;53.464;49.532;2023-03-21T14:00:27;7.88;;;2.80;;
67130;SDS011;54051;53.464;49.532;2023-03-21T14:05:22;6.95;;;2.55;;
67130;SDS011;54051;53.464;49.532;2023-03-21T14:07:52;10.00;;;2.35;;
67130;SDS011;54051;53.464;49.532;2023-03-21T14:10:25;8.48;;;2.10;;
67130;SDS011;54051;53.464;49.532;2023-03-21T14:13:04;8.73;;;2.35;;
67130;SDS011;54051;53.464;49.532;2023-03-21T14:15:48;9.55;;;2.30;;
67130;SDS011;54051;53.464;49.532;2023-03-21T14:18:26;7.43;;;2.40;;
67130;SDS011;54051;53.464;49.532;2023-03-21T14:20:54;9.55;;;2.42;;
67130;SDS011;54051;53.464;49.532;2023-03-21T14:23:23;11.10;;;2.53;;
67130;SDS011;54051;53.464;49.532;2023-03-21T14:28:17;7.25;;;2.17;;
67130;SDS011;54051;53.464;49.532;2023-03-21T14:30:49;9.55;;;2.67;;
67130;SDS011;54051;53.464;49.532;2023-03-21T14:33:30;9.25;;;2.40;;
67130;SDS011;54051;53.464;49.532;2023-03-21T14:36:04;8.60;;;2.33;;
67130;SDS011;54051;53.464;49.532;2023-03-21T14:38:34;9.90;;;2.97;;
67130;SDS011;54051;53.464;49.532;2023-03-21T14:41:02;12.32;;;3.00;;
67130;SDS011;54051;53.464;49.532;2023-03-21T14:45:58;10.82;;;2.28;;
67130;SDS011;54051;53.464;49.532;2023-03-21T14:51:00;7.30;;;2.70;;
67130;SDS011;54051;53.464;49.532;2023-03-21T14:53:36;6.13;;;2.40;;
67130;SDS011;54051;53.464;49.532;2023-03-21T14:56:06;9.05;;;2.50;;
67130;SDS011;54051;53.464;49.532;2023-03-21T14:58:37;10.95;;;2.58;;
67130;SDS011;54051;53.464;49.532;2023-03-21T15:01:05;9.75;;;2.60;;
67130;SDS011;54051;53.464;49.532;2023-03-21T15:03:38;9.20;;;2.65;;
67130;SDS011;54051;53.464;49.532;2023-03-21T15:06:06;8.75;;;2.58;;
67130;SDS011;54051;53.464;49.532;2023-03-21T15:08:39;9.45;;;2.83;;
67130;SDS011;54051;53.464;49.532;2023-03-21T15:11:17;7.65;;;2.50;;
67130;SDS011;54051;53.464;49.532;2023-03-21T15:13:53;9.95;;;2.50;;
67130;SDS011;54051;53.464;49.532;2023-03-21T15:16:23;8.70;;;2.60;;
67130;SDS011;54051;53.464;49.532;2023-03-21T15:18:49;5.57;;;2.28;;
67130;SDS011;54051;53.464;49.532;2023-03-21T15:23:47;7.93;;;2.40;;
67130;SDS011;54051;53.464;49.532;2023-03-21T15:26:18;5.97;;;2.47;;
67130;SDS011;54051;53.464;49.532;2023-03-21T15:28:48;7.53;;;2.50;;
67130;SDS011;54051;53.464;49.532;2023-03-21T15:31:20;6.43;;;2.72;;
67130;SDS011;54051;53.464;49.532;2023-03-21T15:33:49;8.00;;;2.70;;
67130;SDS011;54051;53.464;49.532;2023-03-21T15:36:21;6.63;;;2.65;;
67130;SDS011;54051;53.464;49.532;2023-03-21T15:38:51;6.38;;;2.75;;
67130;SDS011;54051;53.464;49.532;2023-03-21T15:46:46;15.90;;;6.28;;
67130;SDS011;54051;53.464;49.532;2023-03-21T15:51:45;12.13;;;5.40;;
67130;SDS011;54051;53.464;49.532;2023-03-21T15:54:15;11.18;;;3.97;;
67130;SDS011;54051;53.464;49.532;2023-03-21T15:56:56;13.52;;;5.10;;
67130;SDS011;54051;53.464;49.532;2023-03-21T15:59:26;10.98;;;4.30;;
67130;SDS011;54051;53.464;49.532;2023-03-21T16:01:56;9.32;;;3.58;;
67130;SDS011;54051;53.464;49.532;2023-03-21T16:04:23;7.28;;;3.20;;
67130;SDS011;54051;53.464;49.532;2023-03-21T16:09:23;9.35;;;3.50;;
67130;SDS011;54051;53.464;49.532;2023-03-21T16:11:54;8.98;;;2.78;;
67130;SDS011;54051;53.464;49.532;2023-03-21T16:14:22;6.50;;;2.92;;
67130;SDS011;54051;53.464;49.532;2023-03-21T16:16:52;6.60;;;2.67;;
67130;SDS011;54051;53.464;49.532;2023-03-21T16:19:18;7.63;;;2.50;;
67130;SDS011;54051;53.464;49.532;2023-03-21T16:21:45;7.30;;;2.90;;
67130;SDS011;54051;53.464;49.532;2023-03-21T16:24:11;7.10;;;2.78;;
67130;SDS011;54051;53.464;49.532;2023-03-21T16:26:41;6.28;;;2.20;;
67130;SDS011;54051;53.464;49.532;2023-03-21T16:29:13;7.55;;;2.72;;
67130;SDS011;54051;53.464;49.532;2023-03-21T16:31:40;6.07;;;2.30;;
67130;SDS011;54051;53.464;49.532;2023-03-21T16:34:07;5.63;;;2.38;;
67130;SDS011;54051;53.464;49.532;2023-03-21T16:36:37;5.38;;;2.40;;
67130;SDS011;54051;53.464;49.532;2023-03-21T16:39:21;5.82;;;2.53;;
67130;SDS011;54051;53.464;49.532;2023-03-21T16:41:50;6.65;;;2.53;;
67130;SDS011;54051;53.464;49.532;2023-03-21T16:44:17;5.45;;;2.47;;
67130;SDS011;54051;53.464;49.532;2023-03-21T16:46:45;5.53;;;2.30;;
67130;SDS011;54051;53.464;49.532;2023-03-21T16:51:45;5.60;;;2.00;;
67130;SDS011;54051;53.464;49.532;2023-03-21T16:54:11;6.20;;;2.47;;
67130;SDS011;54051;53.464;49.532;2023-03-21T16:56:39;6.40;;;2.45;;
67130;SDS011;54051;53.464;49.532;2023-03-21T16:59:16;5.97;;;2.38;;
67130;SDS011;54051;53.464;49.532;2023-03-21T17:01:42;7.40;;;2.30;;
67130;SDS011;54051;53.464;49.532;2023-03-21T17:04:11;5.22;;;2.10;;
67130;SDS011;54051;53.464;49.532;2023-03-21T17:06:40;5.88;;;2.60;;
67130;SDS011;54051;53.464;49.532;2023-03-21T17:09:09;6.88;;;2.42;;
67130;SDS011;54051;53.464;49.532;2023-03-21T17:11:38;7.00;;;2.60;;
67130;SDS011;54051;53.464;49.532;2023-03-21T17:14:06;5.57;;;2.58;;
67130;SDS011;54051;53.464;49.532;2023-03-21T17:16:34;6.22;;;2.33;;
67130;SDS011;54051;53.464;49.532;2023-03-21T17:19:00;7.30;;;2.35;;
67130;SDS011;54051;53.464;49.532;2023-03-21T17:21:27;7.43;;;2.45;;
67130;SDS011;54051;53.464;49.532;2023-03-21T17:23:54;6.65;;;2.65;;
67130;SDS011;54051;53.464;49.532;2023-03-21T17:26:21;7.78;;;2.70;;